createdAt,value
2018-06-19T00:02:23.154Z,101654.55
2018-06-19T00:04:49.137Z,101652.83
2018-06-19T00:07:15.117Z,101655.48
2018-06-19T00:09:41.088Z,101647.82
2018-06-19T00:12:07.078Z,101641.05
2018-06-19T00:14:33.041Z,101648.81
2018-06-19T00:16:59.010Z,101650.61
2018-06-19T00:19:24.974Z,101651.94
2018-06-19T00:21:50.968Z,101649.48
2018-06-19T00:24:16.967Z,101653.13
2018-06-19T00:26:42.984Z,101650.28
2018-06-19T00:29:08.955Z,101648.32
2018-06-19T00:31:34.911Z,101647.59
2018-06-19T00:34:00.889Z,101647.06
2018-06-19T00:36:26.851Z,101650.55
2018-06-19T00:38:52.839Z,101650.47
2018-06-19T00:41:18.816Z,101641.89
2018-06-19T00:43:44.816Z,101642.19
2018-06-19T00:46:10.784Z,101639.97
2018-06-19T00:48:36.773Z,101636.12
2018-06-19T00:51:02.750Z,101640.20
2018-06-19T00:53:28.723Z,101634.63
2018-06-19T00:55:54.714Z,101633.63
2018-06-19T00:58:20.665Z,101631.08
2018-06-19T01:00:46.628Z,101632.00
2018-06-19T01:03:12.588Z,101632.23
2018-06-19T01:05:38.578Z,101639.59
2018-06-19T01:08:05.208Z,101640.73
2018-06-19T01:10:31.175Z,101634.45
2018-06-19T01:12:57.160Z,101643.02
2018-06-19T01:15:23.149Z,101644.24
2018-06-19T01:17:49.139Z,101651.80
2018-06-19T01:20:15.095Z,101652.70
2018-06-19T01:22:41.190Z,101650.14
2018-06-19T01:25:07.157Z,101654.45
2018-06-19T01:27:33.138Z,101652.13
2018-06-19T01:29:59.135Z,101650.31
2018-06-19T01:32:25.103Z,101642.72
2018-06-19T01:34:51.062Z,101649.78
2018-06-19T01:37:17.033Z,101648.45
2018-06-19T01:39:43.020Z,101648.02
2018-06-19T01:42:08.988Z,101643.55
2018-06-19T01:44:34.965Z,101646.36
2018-06-19T01:47:00.942Z,101652.50
2018-06-19T01:49:26.922Z,101651.17
2018-06-19T01:51:52.872Z,101650.34
2018-06-19T01:54:18.828Z,101655.72
2018-06-19T01:56:44.792Z,101649.71
2018-06-19T01:59:10.751Z,101659.47
2018-06-19T02:01:36.722Z,101651.87
2018-06-19T02:04:02.700Z,101648.16
2018-06-19T02:06:28.676Z,101648.84
2018-06-19T02:08:54.633Z,101648.12
2018-06-19T02:11:20.609Z,101652.39
2018-06-19T02:13:46.572Z,101646.16
2018-06-19T02:16:12.545Z,101645.80
2018-06-19T02:18:38.532Z,101646.30
2018-06-19T02:21:04.541Z,101654.75
2018-06-19T02:23:30.503Z,101655.91
2018-06-19T02:25:56.461Z,101655.15
2018-06-19T02:28:22.556Z,101658.77
2018-06-19T02:30:48.509Z,101659.83
2018-06-19T02:33:14.467Z,101661.98
2018-06-19T02:35:40.516Z,101667.22
2018-06-19T02:38:06.484Z,101663.94
2018-06-19T02:40:32.472Z,101666.39
2018-06-19T02:42:58.441Z,101668.42
2018-06-19T02:45:24.409Z,101667.22
2018-06-19T02:47:50.397Z,101673.66
2018-06-19T02:50:16.349Z,101676.88
2018-06-19T02:52:42.304Z,101677.00
2018-06-19T02:55:08.362Z,101677.14
2018-06-19T02:57:34.317Z,101681.78
2018-06-19T03:00:00.295Z,101686.59
2018-06-19T03:02:26.260Z,101688.20
2018-06-19T03:04:52.230Z,101694.32
2018-06-19T03:07:18.227Z,101693.55
2018-06-19T03:09:44.241Z,101695.45
2018-06-19T03:12:10.217Z,101704.33
2018-06-19T03:14:36.175Z,101697.75
2018-06-19T03:17:02.138Z,101700.68
2018-06-19T03:19:28.080Z,101698.73
2018-06-19T03:21:54.043Z,101699.48
2018-06-19T03:24:20.012Z,101708.14
2018-06-19T03:26:46.009Z,101705.16
2018-06-19T03:29:11.983Z,101701.88
2018-06-19T03:31:37.950Z,101703.24
2018-06-19T03:34:03.909Z,101703.20
2018-06-19T03:36:29.869Z,101701.71
2018-06-19T03:38:55.851Z,101713.81
2018-06-19T03:41:21.818Z,101707.02
2018-06-19T03:43:47.788Z,101711.56
2018-06-19T03:46:13.774Z,101708.08
2018-06-19T03:48:39.773Z,101710.86
2018-06-19T03:51:05.904Z,101713.09
2018-06-19T03:53:31.855Z,101712.92
2018-06-19T03:55:57.822Z,101727.48
2018-06-19T03:58:23.776Z,101726.78
2018-06-19T04:00:49.755Z,101722.02
2018-06-19T04:03:15.731Z,101717.50
2018-06-19T04:05:41.704Z,101722.17
2018-06-19T04:08:07.663Z,101721.45
2018-06-19T04:10:33.773Z,101729.84
2018-06-19T04:12:59.709Z,101737.40
2018-06-19T04:15:25.662Z,101739.05
2018-06-19T04:17:51.857Z,101738.02
2018-06-19T04:20:17.819Z,101748.97
2018-06-19T04:22:43.779Z,101754.77
2018-06-19T04:25:09.847Z,101746.55
2018-06-19T04:27:35.847Z,101744.53
2018-06-19T04:30:01.823Z,101749.67
2018-06-19T04:32:27.880Z,101748.84
2018-06-19T04:34:53.849Z,101748.64
2018-06-19T04:37:19.837Z,101757.39
2018-06-19T04:39:45.984Z,101762.89
2018-06-19T04:42:12.056Z,101761.91
2018-06-19T04:44:37.988Z,101753.61
2018-06-19T04:47:03.946Z,101767.08
2018-06-19T04:49:29.907Z,101771.31
2018-06-19T04:51:55.876Z,101771.11
2018-06-19T04:54:21.847Z,101766.71
2018-06-19T04:56:47.811Z,101769.23
2018-06-19T04:59:13.775Z,101770.28
2018-06-19T05:01:39.758Z,101769.36
2018-06-19T05:04:05.743Z,101765.05
2018-06-19T05:06:31.721Z,101765.87
2018-06-19T05:08:57.686Z,101771.27
2018-06-19T05:11:23.707Z,101767.34
2018-06-19T05:13:49.714Z,101770.06
2018-06-19T05:16:15.813Z,101776.07
2018-06-19T05:18:41.777Z,101779.15
2018-06-19T05:21:07.797Z,101776.58
2018-06-19T05:23:33.771Z,101779.02
2018-06-19T05:25:59.750Z,101772.38
2018-06-19T05:28:25.752Z,101770.69
2018-06-19T05:30:51.713Z,101775.17
2018-06-19T05:33:17.684Z,101769.03
2018-06-19T05:35:43.680Z,101771.98
2018-06-19T05:38:09.654Z,101772.31
2018-06-19T05:40:35.723Z,101761.00
2018-06-19T05:43:01.780Z,101766.67
2018-06-19T05:45:28.274Z,101765.05
2018-06-19T05:47:54.231Z,101767.00
2018-06-19T05:50:20.223Z,101769.16
2018-06-19T05:52:46.273Z,101778.66
2018-06-19T05:55:12.224Z,101776.83
2018-06-19T05:57:38.265Z,101778.02
2018-06-19T06:00:04.239Z,101778.02
2018-06-19T06:02:30.207Z,101775.80
2018-06-19T06:04:56.196Z,101779.36
2018-06-19T06:07:22.405Z,101782.84
2018-06-19T06:09:48.375Z,101781.72
2018-06-19T06:12:14.474Z,101784.38
2018-06-19T06:14:40.430Z,101782.09
2018-06-19T06:17:06.551Z,101783.34
2018-06-19T06:19:32.521Z,101785.08
2018-06-19T06:21:58.478Z,101788.09
2018-06-19T06:24:24.541Z,101779.31
2018-06-19T06:26:51.525Z,101791.37
2018-06-19T06:29:17.508Z,101790.09
2018-06-19T06:31:43.521Z,101794.56
2018-06-19T06:34:09.486Z,101791.42
2018-06-19T06:36:35.453Z,101795.40
2018-06-19T06:39:01.442Z,101795.77
2018-06-19T06:41:27.405Z,101801.78
2018-06-19T06:43:53.372Z,101804.77
2018-06-19T06:46:19.351Z,101805.47
2018-06-19T06:48:45.318Z,101806.80
2018-06-19T06:51:11.280Z,101801.70
2018-06-19T06:53:37.277Z,101807.84
2018-06-19T06:56:03.265Z,101801.19
2018-06-19T06:58:29.247Z,101801.95
2018-06-19T07:00:55.252Z,101803.34
2018-06-19T07:03:21.244Z,101806.50
2018-06-19T07:05:47.214Z,101807.20
2018-06-19T07:08:13.204Z,101807.48
2018-06-19T07:10:39.180Z,101808.80
2018-06-19T07:13:05.171Z,101806.69
2018-06-19T07:15:31.229Z,101806.35
2018-06-19T07:17:57.193Z,101806.44
2018-06-19T07:20:23.202Z,101806.35
2018-06-19T07:22:49.184Z,101812.17
2018-06-19T07:25:15.183Z,101815.03
2018-06-19T07:27:41.184Z,101815.03
2018-06-19T07:30:07.193Z,101820.96
2018-06-19T07:32:33.242Z,101821.66
2018-06-19T07:34:59.217Z,101822.98
2018-06-19T07:37:25.183Z,101828.62
2018-06-19T07:39:51.148Z,101829.53
2018-06-19T07:42:17.149Z,101827.66
2018-06-19T07:44:43.144Z,101830.15
2018-06-19T07:47:09.117Z,101839.16
2018-06-19T07:49:35.108Z,101832.97
2018-06-19T07:52:01.176Z,101835.77
2018-06-19T07:54:27.147Z,101837.22
2018-06-19T07:56:53.123Z,101833.52
2018-06-19T07:59:19.094Z,101846.67
2018-06-19T08:01:45.065Z,101841.48
2018-06-19T08:04:11.017Z,101842.69
2018-06-19T08:06:36.986Z,101845.34
2018-06-19T08:09:03.065Z,101847.78
2018-06-19T08:11:29.147Z,101843.84
2018-06-19T08:13:55.160Z,101837.78
2018-06-19T08:16:21.130Z,101841.69
2018-06-19T08:18:47.153Z,101840.48
2018-06-19T08:21:13.106Z,101853.34
2018-06-19T08:23:39.059Z,101851.41
2018-06-19T08:26:05.030Z,101848.67
2018-06-19T08:28:31.019Z,101855.67
2018-06-19T08:30:57.013Z,101851.09
2018-06-19T08:33:22.993Z,101853.50
2018-06-19T08:35:48.979Z,101853.83
2018-06-19T08:38:14.947Z,101860.76
2018-06-19T08:40:40.945Z,101865.50
2018-06-19T08:43:06.961Z,101864.11
2018-06-19T08:45:33.016Z,101867.61
2018-06-19T08:47:59.056Z,101864.58
2018-06-19T08:50:24.992Z,101867.27
2018-06-19T08:52:50.978Z,101870.19
2018-06-19T08:55:16.972Z,101872.62
2018-06-19T08:57:42.974Z,101871.80
2018-06-19T09:00:08.942Z,101872.83
2018-06-19T09:02:34.961Z,101869.20
2018-06-19T09:05:01.017Z,101877.38
2018-06-19T09:07:27.056Z,101874.11
2018-06-19T09:09:53.012Z,101877.94
2018-06-19T09:12:18.967Z,101876.69
2018-06-19T09:14:44.951Z,101881.91
2018-06-19T09:17:10.936Z,101878.97
2018-06-19T09:19:36.901Z,101889.75
2018-06-19T09:22:02.893Z,101891.78
2018-06-19T09:24:28.853Z,101891.70
2018-06-19T09:26:54.849Z,101897.71
2018-06-19T09:29:20.839Z,101897.09
2018-06-19T09:31:46.809Z,101891.41
2018-06-19T09:34:12.759Z,101890.25
2018-06-19T09:36:38.737Z,101888.96
2018-06-19T09:39:04.719Z,101897.09
2018-06-19T09:41:30.703Z,101897.71
2018-06-19T09:43:56.672Z,101897.22
2018-06-19T09:46:22.661Z,101893.85
2018-06-19T09:48:48.638Z,101892.23
2018-06-19T09:51:14.635Z,101902.45
2018-06-19T09:53:40.727Z,101895.97
2018-06-19T09:56:06.666Z,101895.76
2018-06-19T09:58:32.694Z,101896.67
2018-06-19T10:00:58.702Z,101900.36
2018-06-19T10:03:24.677Z,101901.06
2018-06-19T10:05:50.638Z,101904.05
2018-06-19T10:08:16.630Z,101899.53
2018-06-19T10:10:42.611Z,101892.81
2018-06-19T10:13:08.616Z,101897.71
2018-06-19T10:15:34.592Z,101894.89
2018-06-19T10:18:00.620Z,101898.75
2018-06-19T10:20:26.621Z,101899.66
2018-06-19T10:22:52.645Z,101900.78
2018-06-19T10:25:18.640Z,101906.42
2018-06-19T10:27:44.610Z,101905.51
2018-06-19T10:30:10.614Z,101909.39
2018-06-19T10:32:36.640Z,101907.44
2018-06-19T10:35:04.609Z,101904.50
2018-06-19T10:37:30.585Z,101902.62
2018-06-19T10:39:56.594Z,101904.86
2018-06-19T10:42:22.563Z,101904.67
2018-06-19T10:44:48.541Z,101899.86
2018-06-19T10:47:14.523Z,101910.27
2018-06-19T10:49:40.495Z,101910.41
2018-06-19T10:52:06.454Z,101907.56
2018-06-19T10:54:32.430Z,101910.20
2018-06-19T10:56:58.428Z,101907.91
2018-06-19T10:59:24.402Z,101908.32
2018-06-19T11:01:50.408Z,101901.81
2018-06-19T11:04:16.430Z,101910.48
2018-06-19T11:06:42.408Z,101913.92
2018-06-19T11:09:08.385Z,101913.70
2018-06-19T11:11:34.359Z,101916.64
2018-06-19T11:14:00.339Z,101914.62
2018-06-19T11:16:26.325Z,101912.83
2018-06-19T11:18:52.323Z,101916.44
2018-06-19T11:21:18.304Z,101910.59
2018-06-19T11:23:44.296Z,101913.97
2018-06-19T11:26:10.262Z,101917.41
2018-06-19T11:28:36.235Z,101918.77
2018-06-19T11:31:02.200Z,101917.20
2018-06-19T11:33:28.168Z,101919.72
2018-06-19T11:35:54.151Z,101916.58
2018-06-19T11:38:20.140Z,101921.52
2018-06-19T11:40:46.098Z,101915.45
2018-06-19T11:43:12.074Z,101920.77
2018-06-19T11:45:38.058Z,101912.02
2018-06-19T11:48:04.026Z,101912.44
2018-06-19T11:50:30.028Z,101918.39
2018-06-19T11:52:56.001Z,101914.98
2018-06-19T11:55:21.960Z,101910.64
2018-06-19T11:57:47.940Z,101914.08
2018-06-19T12:00:13.910Z,101913.66
2018-06-19T12:02:39.914Z,101913.99
2018-06-19T12:05:05.950Z,101908.90
2018-06-19T12:07:31.903Z,101903.66
2018-06-19T12:09:57.907Z,101897.09
2018-06-19T12:12:23.882Z,101903.92
2018-06-19T12:14:49.861Z,101903.02
2018-06-19T12:17:15.839Z,101907.91
2018-06-19T12:19:41.825Z,101906.94
2018-06-19T12:22:07.797Z,101905.88
2018-06-19T12:24:33.777Z,101906.00
2018-06-19T12:26:59.824Z,101908.32
2018-06-19T12:29:25.792Z,101901.77
2018-06-19T12:31:51.753Z,101899.12
2018-06-19T12:34:17.760Z,101898.41
2018-06-19T12:36:43.736Z,101900.45
2018-06-19T12:39:09.709Z,101898.95
2018-06-19T12:41:35.717Z,101903.51
2018-06-19T12:44:01.638Z,101901.84
2018-06-19T12:46:27.602Z,101905.46
2018-06-19T12:48:53.563Z,101904.55
2018-06-19T12:51:19.557Z,101904.68
2018-06-19T12:53:45.557Z,101901.98
2018-06-19T12:56:11.536Z,101898.83
2018-06-19T12:58:37.520Z,101908.45
2018-06-19T13:01:03.497Z,101905.38
2018-06-19T13:03:29.481Z,101908.87
2018-06-19T13:05:55.453Z,101917.12
2018-06-19T13:08:21.426Z,101913.55
2018-06-19T13:10:47.385Z,101916.20
2018-06-19T13:13:13.358Z,101916.36
2018-06-19T13:15:39.322Z,101915.45
2018-06-19T13:18:05.380Z,101911.89
2018-06-19T13:20:31.372Z,101911.52
2018-06-19T13:22:57.329Z,101909.86
2018-06-19T13:25:23.279Z,101912.35
2018-06-19T13:27:49.243Z,101911.73
2018-06-19T13:30:15.236Z,101910.35
2018-06-19T13:32:41.188Z,101913.70
2018-06-19T13:35:07.189Z,101909.36
2018-06-19T13:37:33.152Z,101910.22
2018-06-19T13:39:59.138Z,101908.40
2018-06-19T13:42:25.094Z,101907.75
2018-06-19T13:44:51.074Z,101905.95
2018-06-19T13:47:17.024Z,101909.44
2018-06-19T13:49:43.012Z,101913.34
2018-06-19T13:52:08.956Z,101914.38
2018-06-19T13:54:34.907Z,101916.20
2018-06-19T13:57:00.939Z,101911.81
2018-06-19T13:59:26.901Z,101914.13
2018-06-19T14:01:52.941Z,101912.52
2018-06-19T14:04:18.834Z,101910.90
2018-06-19T14:06:44.817Z,101909.65
2018-06-19T14:09:10.866Z,101907.77
2018-06-19T14:11:36.832Z,101910.30
2018-06-19T14:14:02.812Z,101908.47
2018-06-19T14:16:28.778Z,101908.27
2018-06-19T14:18:54.779Z,101905.91
2018-06-19T14:21:20.747Z,101910.09
2018-06-19T14:23:46.757Z,101904.05
2018-06-19T14:26:12.717Z,101907.63
2018-06-19T14:28:38.680Z,101899.38
2018-06-19T14:31:04.650Z,101891.77
2018-06-19T14:33:30.615Z,101896.33
2018-06-19T14:35:56.605Z,101897.71
2018-06-19T14:38:22.586Z,101897.91
2018-06-19T14:40:48.636Z,101899.03
2018-06-19T14:43:14.635Z,101895.80
2018-06-19T14:45:40.596Z,101901.27
2018-06-19T14:48:06.681Z,101903.92
2018-06-19T14:50:32.659Z,101902.34
2018-06-19T14:52:58.617Z,101899.48
2018-06-19T14:55:24.598Z,101899.47
2018-06-19T14:57:50.545Z,101893.53
2018-06-19T15:00:16.546Z,101899.97
2018-06-19T15:02:42.665Z,101892.95
2018-06-19T15:05:08.741Z,101898.77
2018-06-19T15:07:34.733Z,101899.19
2018-06-19T15:10:00.810Z,101892.75
2018-06-19T15:12:26.816Z,101891.07
2018-06-19T15:14:52.811Z,101892.03
2018-06-19T15:17:18.795Z,101893.02
2018-06-19T15:19:44.794Z,101896.71
2018-06-19T15:22:10.779Z,101891.70
2018-06-19T15:24:36.787Z,101885.70
2018-06-19T15:27:02.754Z,101885.27
2018-06-19T15:29:28.732Z,101885.06
2018-06-19T15:31:54.766Z,101889.74
2018-06-19T15:34:20.730Z,101886.54
2018-06-19T15:36:46.793Z,101891.80
2018-06-19T15:39:12.774Z,101885.58
2018-06-19T15:41:38.761Z,101887.81
2018-06-19T15:44:04.739Z,101885.56
2018-06-19T15:46:30.734Z,101878.45
2018-06-19T15:48:56.721Z,101880.69
2018-06-19T15:51:22.791Z,101882.02
2018-06-19T15:53:48.801Z,101880.06
2018-06-19T15:56:14.846Z,101876.21
2018-06-19T15:58:40.824Z,101881.86
2018-06-19T16:01:06.886Z,101873.42
2018-06-19T16:03:32.842Z,101872.93
2018-06-19T16:05:58.849Z,101870.34
2018-06-19T16:08:24.804Z,101869.91
2018-06-19T16:10:50.766Z,101879.56
2018-06-19T16:13:16.751Z,101874.44
2018-06-19T16:15:42.743Z,101869.91
2018-06-19T16:18:08.718Z,101872.22
2018-06-19T16:20:34.677Z,101865.06
2018-06-19T16:23:00.702Z,101868.51
2018-06-19T16:25:26.694Z,101867.63
2018-06-19T16:27:52.733Z,101864.79
2018-06-19T16:30:18.733Z,101865.38
2018-06-19T16:32:44.735Z,101864.67
2018-06-19T16:35:10.703Z,101868.44
2018-06-19T16:37:36.688Z,101864.36
2018-06-19T16:40:02.658Z,101859.25
2018-06-19T16:42:28.638Z,101866.55
2018-06-19T16:44:54.579Z,101866.35
2018-06-19T16:47:20.548Z,101862.70
2018-06-19T16:49:46.548Z,101861.50
2018-06-19T16:52:12.514Z,101866.28
2018-06-19T16:54:38.483Z,101863.53
2018-06-19T16:57:04.416Z,101857.95
2018-06-19T16:59:30.419Z,101856.78
2018-06-19T17:01:56.390Z,101854.27
2018-06-19T17:04:22.393Z,101860.18
2018-06-19T17:06:48.355Z,101857.89
2018-06-19T17:09:14.334Z,101852.91
2018-06-19T17:11:40.349Z,101852.38
2018-06-19T17:14:06.309Z,101855.16
2018-06-19T17:16:32.294Z,101850.28
2018-06-19T17:18:58.286Z,101854.04
2018-06-19T17:21:24.284Z,101851.27
2018-06-19T17:23:50.278Z,101846.88
2018-06-19T17:26:16.271Z,101851.41
2018-06-19T17:28:42.243Z,101853.41
2018-06-19T17:31:08.221Z,101850.69
2018-06-19T17:33:34.198Z,101849.55
2018-06-19T17:36:00.193Z,101849.09
2018-06-19T17:38:26.166Z,101852.80
2018-06-19T17:40:52.164Z,101850.44
2018-06-19T17:43:18.192Z,101847.28
2018-06-19T17:45:44.165Z,101843.14
2018-06-19T17:48:10.154Z,101843.31
2018-06-19T17:50:36.183Z,101839.30
2018-06-19T17:53:02.169Z,101840.41
2018-06-19T17:55:28.201Z,101840.63
2018-06-19T17:57:54.184Z,101844.41
2018-06-19T18:00:20.153Z,101839.23
2018-06-19T18:02:46.116Z,101836.17
2018-06-19T18:05:12.252Z,101844.27
2018-06-19T18:07:38.229Z,101839.95
2018-06-19T18:10:04.213Z,101840.27
2018-06-19T18:12:30.231Z,101843.63
2018-06-19T18:14:56.254Z,101844.36
2018-06-19T18:17:22.228Z,101844.45
2018-06-19T18:19:48.202Z,101837.91
2018-06-19T18:22:14.200Z,101836.93
2018-06-19T18:24:40.288Z,101840.37
2018-06-19T18:27:06.256Z,101840.14
2018-06-19T18:29:32.237Z,101833.43
2018-06-19T18:31:58.207Z,101835.25
2018-06-19T18:34:24.174Z,101837.37
2018-06-19T18:36:50.152Z,101832.11
2018-06-19T18:39:16.113Z,101838.04
2018-06-19T18:41:42.113Z,101830.78
2018-06-19T18:44:08.260Z,101831.49
2018-06-19T18:46:34.355Z,101834.84
2018-06-19T18:49:00.315Z,101832.39
2018-06-19T18:51:26.393Z,101831.48
2018-06-19T18:53:52.380Z,101831.77
2018-06-19T18:56:18.452Z,101832.67
2018-06-19T18:58:44.427Z,101830.57
2018-06-19T19:01:10.411Z,101827.88
2018-06-19T19:03:36.380Z,101837.16
2018-06-19T19:06:02.356Z,101835.14
2018-06-19T19:08:28.396Z,101838.08
2018-06-19T19:10:54.372Z,101839.61
2018-06-19T19:13:20.330Z,101839.74
2018-06-19T19:15:46.308Z,101839.16
2018-06-19T19:18:12.277Z,101838.83
2018-06-19T19:20:38.276Z,101837.02
2018-06-19T19:23:04.280Z,101834.97
2018-06-19T19:25:30.254Z,101835.89
2018-06-19T19:27:56.248Z,101833.59
2018-06-19T19:30:22.271Z,101829.00
2018-06-19T19:32:48.402Z,101830.13
2018-06-19T19:35:14.383Z,101831.28
2018-06-19T19:37:40.340Z,101829.55
2018-06-19T19:40:06.320Z,101831.78
2018-06-19T19:42:32.463Z,101830.95
2018-06-19T19:44:58.556Z,101836.05
2018-06-19T19:47:24.605Z,101846.09
2018-06-19T19:49:50.582Z,101843.23
2018-06-19T19:52:16.586Z,101847.84
2018-06-19T19:54:42.564Z,101849.66
2018-06-19T19:57:08.553Z,101849.57
2018-06-19T19:59:34.528Z,101853.92
2018-06-19T20:02:00.489Z,101854.88
2018-06-19T20:04:26.468Z,101854.67
2018-06-19T20:06:52.481Z,101859.31
2018-06-19T20:09:18.457Z,101858.66
2018-06-19T20:11:44.488Z,101856.21
2018-06-19T20:14:10.472Z,101859.86
2018-06-19T20:16:36.442Z,101857.70
2018-06-19T20:19:02.479Z,101861.97
2018-06-19T20:21:28.540Z,101862.02
2018-06-19T20:23:54.521Z,101867.12
2018-06-19T20:26:20.493Z,101864.33
2018-06-19T20:28:46.469Z,101868.73
2018-06-19T20:31:12.524Z,101868.81
2018-06-19T20:33:38.617Z,101865.70
2018-06-19T20:36:04.683Z,101872.50
2018-06-19T20:38:30.678Z,101867.48
2018-06-19T20:40:56.647Z,101870.39
2018-06-19T20:43:22.650Z,101871.92
2018-06-19T20:45:48.606Z,101874.99
2018-06-19T20:48:14.700Z,101872.01
2018-06-19T20:50:40.624Z,101878.14
2018-06-19T20:53:06.636Z,101878.35
2018-06-19T20:55:32.679Z,101887.72
2018-06-19T20:57:58.684Z,101877.02
2018-06-19T21:00:24.659Z,101885.40
2018-06-19T21:02:50.631Z,101879.76
2018-06-19T21:05:16.676Z,101885.98
2018-06-19T21:07:42.655Z,101884.78
2018-06-19T21:10:08.642Z,101878.77
2018-06-19T21:12:34.721Z,101883.19
2018-06-19T21:15:00.701Z,101879.84
2018-06-19T21:17:26.663Z,101876.77
2018-06-19T21:19:52.710Z,101874.53
2018-06-19T21:22:18.678Z,101879.47
2018-06-19T21:24:44.658Z,101873.75
2018-06-19T21:27:10.631Z,101874.45
2018-06-19T21:29:36.591Z,101871.22
2018-06-19T21:32:02.582Z,101871.08
2018-06-19T21:34:28.574Z,101868.23
2018-06-19T21:36:54.551Z,101873.20
2018-06-19T21:39:20.540Z,101869.77
2018-06-19T21:41:46.512Z,101866.41
2018-06-19T21:44:12.477Z,101871.92
2018-06-19T21:46:38.492Z,101872.50
2018-06-19T21:49:04.475Z,101870.55
2018-06-19T21:51:30.641Z,101869.14
2018-06-19T21:53:56.611Z,101863.71
2018-06-19T21:56:22.569Z,101865.87
2018-06-19T21:58:48.552Z,101863.50
2018-06-19T22:01:14.531Z,101862.72
2018-06-19T22:03:40.531Z,101868.02
2018-06-19T22:06:06.517Z,101868.60
2018-06-19T22:08:32.505Z,101862.17
2018-06-19T22:10:58.471Z,101863.05
2018-06-19T22:13:24.456Z,101861.72
2018-06-19T22:15:50.427Z,101863.55
2018-06-19T22:18:16.406Z,101862.17
2018-06-19T22:20:42.623Z,101859.23
2018-06-19T22:23:08.640Z,101856.00
2018-06-19T22:25:34.604Z,101859.02
2018-06-19T22:28:00.600Z,101854.19
2018-06-19T22:30:26.573Z,101854.83
2018-06-19T22:32:52.590Z,101865.23
2018-06-19T22:35:18.528Z,101862.30
2018-06-19T22:37:44.491Z,101863.42
2018-06-19T22:40:10.491Z,101858.03
2018-06-19T22:42:36.525Z,101862.72
2018-06-19T22:45:02.503Z,101858.45
2018-06-19T22:47:28.672Z,101858.81
2018-06-19T22:49:54.659Z,101859.44
2018-06-19T22:52:20.821Z,101861.97
2018-06-19T22:54:46.804Z,101867.73
2018-06-19T22:57:12.809Z,101865.24
2018-06-19T22:59:38.833Z,101863.29
2018-06-19T23:02:04.799Z,101867.53
2018-06-19T23:04:30.813Z,101863.91
2018-06-19T23:06:56.764Z,101858.66
2018-06-19T23:09:22.824Z,101859.44
2018-06-19T23:11:48.780Z,101868.94
2018-06-19T23:14:14.783Z,101867.31
2018-06-19T23:16:40.748Z,101860.69
2018-06-19T23:19:06.839Z,101859.77
2018-06-19T23:21:32.825Z,101861.52
2018-06-19T23:23:58.813Z,101857.28
2018-06-19T23:26:24.777Z,101862.22
2018-06-19T23:28:50.750Z,101856.66
2018-06-19T23:31:16.721Z,101855.33
2018-06-19T23:33:42.673Z,101852.23
2018-06-19T23:36:08.705Z,101849.16
2018-06-19T23:38:34.700Z,101849.95
2018-06-19T23:41:01.317Z,101852.73
2018-06-19T23:43:27.291Z,101856.16
2018-06-19T23:45:53.252Z,101849.78
2018-06-19T23:48:19.223Z,101846.87
2018-06-19T23:50:45.187Z,101841.83
2018-06-19T23:53:11.130Z,101841.07
2018-06-19T23:55:37.082Z,101845.34
2018-06-19T23:58:03.110Z,101837.22
